sensor_id;sensor_type;location;lat;lon;timestamp;P1;durP1;ratioP1;P2;durP2;ratioP2
19621;SDS011;9958;33.196;-97.114;2024-03-08T00:00:51;7.40;;;3.70;;
19621;SDS011;9958;33.196;-97.114;2024-03-08T00:03:19;6.57;;;3.97;;
19621;SDS011;9958;33.196;-97.114;2024-03-08T00:05:48;8.00;;;3.67;;
19621;SDS011;9958;33.196;-97.114;2024-03-08T00:08:17;7.28;;;3.75;;
19621;SDS011;9958;33.196;-97.114;2024-03-08T00:10:45;9.70;;;3.83;;
19621;SDS011;9958;33.196;-97.114;2024-03-08T00:13:15;5.50;;;4.28;;
19621;SDS011;9958;33.196;-97.114;2024-03-08T00:15:44;6.20;;;3.40;;
19621;SDS011;9958;33.196;-97.114;2024-03-08T00:18:12;8.55;;;3.67;;
19621;SDS011;9958;33.196;-97.114;2024-03-08T00:20:41;6.43;;;3.65;;
19621;SDS011;9958;33.196;-97.114;2024-03-08T00:23:10;5.72;;;3.70;;
19621;SDS011;9958;33.196;-97.114;2024-03-08T00:25:38;7.75;;;4.20;;
19621;SDS011;9958;33.196;-97.114;2024-03-08T00:28:07;5.05;;;3.67;;
19621;SDS011;9958;33.196;-97.114;2024-03-08T00:30:40;7.00;;;3.55;;
19621;SDS011;9958;33.196;-97.114;2024-03-08T00:33:09;8.13;;;4.22;;
19621;SDS011;9958;33.196;-97.114;2024-03-08T00:35:37;6.55;;;3.85;;
19621;SDS011;9958;33.196;-97.114;2024-03-08T00:38:05;4.65;;;3.60;;
19621;SDS011;9958;33.196;-97.114;2024-03-08T00:40:34;7.03;;;3.20;;
19621;SDS011;9958;33.196;-97.114;2024-03-08T00:43:02;5.35;;;3.35;;
19621;SDS011;9958;33.196;-97.114;2024-03-08T00:45:31;8.57;;;3.67;;
19621;SDS011;9958;33.196;-97.114;2024-03-08T00:48:01;5.53;;;3.35;;
19621;SDS011;9958;33.196;-97.114;2024-03-08T00:50:31;5.85;;;3.40;;
19621;SDS011;9958;33.196;-97.114;2024-03-08T00:52:59;5.35;;;3.30;;
19621;SDS011;9958;33.196;-97.114;2024-03-08T00:55:28;4.05;;;3.38;;
19621;SDS011;9958;33.196;-97.114;2024-03-08T00:57:56;6.90;;;3.38;;
19621;SDS011;9958;33.196;-97.114;2024-03-08T01:00:25;7.60;;;3.92;;
19621;SDS011;9958;33.196;-97.114;2024-03-08T01:02:53;6.22;;;3.35;;
19621;SDS011;9958;33.196;-97.114;2024-03-08T01:05:23;6.68;;;3.80;;
19621;SDS011;9958;33.196;-97.114;2024-03-08T01:07:52;7.45;;;3.28;;
19621;SDS011;9958;33.196;-97.114;2024-03-08T01:10:20;5.38;;;3.30;;
19621;SDS011;9958;33.196;-97.114;2024-03-08T01:12:49;6.90;;;3.83;;
19621;SDS011;9958;33.196;-97.114;2024-03-08T01:15:17;5.85;;;3.35;;
19621;SDS011;9958;33.196;-97.114;2024-03-08T01:17:45;7.25;;;3.75;;
19621;SDS011;9958;33.196;-97.114;2024-03-08T01:20:14;5.45;;;3.30;;
19621;SDS011;9958;33.196;-97.114;2024-03-08T01:22:45;6.53;;;3.75;;
19621;SDS011;9958;33.196;-97.114;2024-03-08T01:25:13;7.13;;;3.70;;
19621;SDS011;9958;33.196;-97.114;2024-03-08T01:27:41;6.63;;;3.40;;
19621;SDS011;9958;33.196;-97.114;2024-03-08T01:30:10;5.00;;;3.33;;
19621;SDS011;9958;33.196;-97.114;2024-03-08T01:32:38;8.15;;;4.30;;
19621;SDS011;9958;33.196;-97.114;2024-03-08T01:35:08;8.70;;;3.58;;
19621;SDS011;9958;33.196;-97.114;2024-03-08T01:37:37;6.03;;;3.85;;
19621;SDS011;9958;33.196;-97.114;2024-03-08T01:40:08;9.15;;;3.80;;
19621;SDS011;9958;33.196;-97.114;2024-03-08T01:42:36;6.95;;;3.42;;
19621;SDS011;9958;33.196;-97.114;2024-03-08T01:45:07;7.50;;;3.70;;
19621;SDS011;9958;33.196;-97.114;2024-03-08T01:47:35;8.75;;;4.00;;
19621;SDS011;9958;33.196;-97.114;2024-03-08T01:50:05;7.55;;;3.72;;
19621;SDS011;9958;33.196;-97.114;2024-03-08T01:52:34;4.22;;;3.65;;
19621;SDS011;9958;33.196;-97.114;2024-03-08T01:55:03;6.68;;;3.63;;
19621;SDS011;9958;33.196;-97.114;2024-03-08T01:57:35;6.50;;;3.83;;
19621;SDS011;9958;33.196;-97.114;2024-03-08T02:00:04;9.93;;;3.97;;
19621;SDS011;9958;33.196;-97.114;2024-03-08T02:02:35;6.78;;;4.10;;
19621;SDS011;9958;33.196;-97.114;2024-03-08T02:05:07;9.60;;;4.45;;
19621;SDS011;9958;33.196;-97.114;2024-03-08T02:07:35;7.47;;;4.28;;
19621;SDS011;9958;33.196;-97.114;2024-03-08T02:10:04;6.90;;;3.65;;
19621;SDS011;9958;33.196;-97.114;2024-03-08T02:12:35;5.85;;;4.03;;
19621;SDS011;9958;33.196;-97.114;2024-03-08T02:15:04;7.38;;;4.35;;
19621;SDS011;9958;33.196;-97.114;2024-03-08T02:17:33;10.32;;;4.75;;
19621;SDS011;9958;33.196;-97.114;2024-03-08T02:20:02;8.68;;;4.13;;
19621;SDS011;9958;33.196;-97.114;2024-03-08T02:22:33;9.43;;;4.93;;
19621;SDS011;9958;33.196;-97.114;2024-03-08T02:25:01;6.68;;;4.20;;
19621;SDS011;9958;33.196;-97.114;2024-03-08T02:27:31;9.32;;;4.88;;
19621;SDS011;9958;33.196;-97.114;2024-03-08T02:29:59;8.48;;;4.63;;
19621;SDS011;9958;33.196;-97.114;2024-03-08T02:32:28;6.80;;;3.97;;
19621;SDS011;9958;33.196;-97.114;2024-03-08T02:34:58;7.43;;;4.45;;
19621;SDS011;9958;33.196;-97.114;2024-03-08T02:37:26;8.07;;;4.55;;
19621;SDS011;9958;33.196;-97.114;2024-03-08T02:39:57;7.57;;;4.60;;
19621;SDS011;9958;33.196;-97.114;2024-03-08T02:42:25;7.55;;;4.18;;
19621;SDS011;9958;33.196;-97.114;2024-03-08T02:44:54;7.75;;;4.35;;
19621;SDS011;9958;33.196;-97.114;2024-03-08T02:47:23;10.40;;;4.50;;
19621;SDS011;9958;33.196;-97.114;2024-03-08T02:49:52;6.50;;;5.05;;
19621;SDS011;9958;33.196;-97.114;2024-03-08T02:52:20;7.95;;;4.35;;
19621;SDS011;9958;33.196;-97.114;2024-03-08T02:54:49;8.40;;;4.47;;
19621;SDS011;9958;33.196;-97.114;2024-03-08T02:57:19;6.03;;;3.97;;
19621;SDS011;9958;33.196;-97.114;2024-03-08T02:59:47;8.95;;;4.85;;
19621;SDS011;9958;33.196;-97.114;2024-03-08T03:02:16;7.97;;;4.57;;
19621;SDS011;9958;33.196;-97.114;2024-03-08T03:04:44;6.20;;;4.57;;
19621;SDS011;9958;33.196;-97.114;2024-03-08T03:07:13;9.32;;;4.60;;
19621;SDS011;9958;33.196;-97.114;2024-03-08T03:09:41;8.10;;;5.13;;
19621;SDS011;9958;33.196;-97.114;2024-03-08T03:12:10;9.15;;;4.60;;
19621;SDS011;9958;33.196;-97.114;2024-03-08T03:14:41;6.50;;;4.50;;
19621;SDS011;9958;33.196;-97.114;2024-03-08T03:17:09;8.30;;;4.65;;
19621;SDS011;9958;33.196;-97.114;2024-03-08T03:19:38;7.47;;;4.60;;
19621;SDS011;9958;33.196;-97.114;2024-03-08T03:22:09;9.80;;;5.05;;
19621;SDS011;9958;33.196;-97.114;2024-03-08T03:24:37;7.53;;;3.92;;
19621;SDS011;9958;33.196;-97.114;2024-03-08T03:27:06;9.32;;;4.68;;
19621;SDS011;9958;33.196;-97.114;2024-03-08T03:29:37;11.18;;;4.82;;
19621;SDS011;9958;33.196;-97.114;2024-03-08T03:32:09;8.27;;;4.68;;
19621;SDS011;9958;33.196;-97.114;2024-03-08T03:34:38;7.40;;;4.75;;
19621;SDS011;9958;33.196;-97.114;2024-03-08T03:37:06;9.15;;;5.20;;
19621;SDS011;9958;33.196;-97.114;2024-03-08T03:39:38;11.85;;;4.53;;
19621;SDS011;9958;33.196;-97.114;2024-03-08T03:42:14;8.63;;;4.63;;
19621;SDS011;9958;33.196;-97.114;2024-03-08T03:44:44;10.35;;;4.70;;
19621;SDS011;9958;33.196;-97.114;2024-03-08T03:47:14;7.55;;;4.90;;
19621;SDS011;9958;33.196;-97.114;2024-03-08T03:49:43;10.15;;;5.03;;
19621;SDS011;9958;33.196;-97.114;2024-03-08T03:52:12;6.43;;;4.25;;
19621;SDS011;9958;33.196;-97.114;2024-03-08T03:54:41;8.02;;;4.82;;
19621;SDS011;9958;33.196;-97.114;2024-03-08T03:57:09;7.25;;;4.45;;
19621;SDS011;9958;33.196;-97.114;2024-03-08T03:59:37;7.72;;;4.75;;
19621;SDS011;9958;33.196;-97.114;2024-03-08T04:02:07;9.77;;;4.20;;
19621;SDS011;9958;33.196;-97.114;2024-03-08T04:04:37;12.50;;;5.63;;
19621;SDS011;9958;33.196;-97.114;2024-03-08T04:07:06;8.18;;;5.20;;
19621;SDS011;9958;33.196;-97.114;2024-03-08T04:09:35;6.60;;;4.70;;
19621;SDS011;9958;33.196;-97.114;2024-03-08T04:12:04;11.07;;;5.47;;
19621;SDS011;9958;33.196;-97.114;2024-03-08T04:14:33;7.57;;;4.93;;
19621;SDS011;9958;33.196;-97.114;2024-03-08T04:17:01;6.50;;;4.35;;
19621;SDS011;9958;33.196;-97.114;2024-03-08T04:19:30;7.28;;;4.43;;
19621;SDS011;9958;33.196;-97.114;2024-03-08T04:22:01;8.20;;;4.38;;
19621;SDS011;9958;33.196;-97.114;2024-03-08T04:24:30;8.18;;;4.72;;
19621;SDS011;9958;33.196;-97.114;2024-03-08T04:26:58;8.00;;;4.50;;
19621;SDS011;9958;33.196;-97.114;2024-03-08T04:29:27;10.25;;;4.93;;
19621;SDS011;9958;33.196;-97.114;2024-03-08T04:31:55;10.63;;;4.50;;
19621;SDS011;9958;33.196;-97.114;2024-03-08T04:34:24;11.00;;;4.82;;
19621;SDS011;9958;33.196;-97.114;2024-03-08T04:36:54;9.23;;;4.70;;
19621;SDS011;9958;33.196;-97.114;2024-03-08T04:39:26;7.50;;;4.22;;
19621;SDS011;9958;33.196;-97.114;2024-03-08T04:41:56;7.45;;;4.65;;
19621;SDS011;9958;33.196;-97.114;2024-03-08T04:44:28;8.80;;;4.57;;
19621;SDS011;9958;33.196;-97.114;2024-03-08T04:46:57;9.68;;;5.28;;
19621;SDS011;9958;33.196;-97.114;2024-03-08T04:49:26;9.35;;;5.03;;
19621;SDS011;9958;33.196;-97.114;2024-03-08T04:51:55;8.63;;;5.97;;
19621;SDS011;9958;33.196;-97.114;2024-03-08T04:54:23;7.57;;;4.82;;
19621;SDS011;9958;33.196;-97.114;2024-03-08T04:56:53;8.13;;;5.03;;
19621;SDS011;9958;33.196;-97.114;2024-03-08T04:59:21;8.23;;;4.28;;
19621;SDS011;9958;33.196;-97.114;2024-03-08T05:01:50;8.75;;;4.93;;
19621;SDS011;9958;33.196;-97.114;2024-03-08T05:04:19;8.27;;;4.75;;
19621;SDS011;9958;33.196;-97.114;2024-03-08T05:06:47;8.02;;;4.30;;
19621;SDS011;9958;33.196;-97.114;2024-03-08T05:09:16;8.25;;;4.43;;
19621;SDS011;9958;33.196;-97.114;2024-03-08T05:11:46;9.20;;;4.68;;
19621;SDS011;9958;33.196;-97.114;2024-03-08T05:14:15;7.75;;;4.65;;
19621;SDS011;9958;33.196;-97.114;2024-03-08T05:16:45;8.00;;;5.00;;
19621;SDS011;9958;33.196;-97.114;2024-03-08T05:19:15;6.15;;;4.32;;
19621;SDS011;9958;33.196;-97.114;2024-03-08T05:21:44;9.23;;;4.32;;
19621;SDS011;9958;33.196;-97.114;2024-03-08T05:24:12;6.68;;;4.60;;
19621;SDS011;9958;33.196;-97.114;2024-03-08T05:26:41;6.45;;;3.83;;
19621;SDS011;9958;33.196;-97.114;2024-03-08T05:29:11;8.77;;;4.72;;
19621;SDS011;9958;33.196;-97.114;2024-03-08T05:31:43;7.80;;;4.70;;
19621;SDS011;9958;33.196;-97.114;2024-03-08T05:34:14;6.90;;;4.30;;
19621;SDS011;9958;33.196;-97.114;2024-03-08T05:36:43;7.50;;;4.15;;
19621;SDS011;9958;33.196;-97.114;2024-03-08T05:39:12;9.05;;;4.63;;
19621;SDS011;9958;33.196;-97.114;2024-03-08T05:41:40;7.00;;;4.40;;
19621;SDS011;9958;33.196;-97.114;2024-03-08T05:44:09;7.18;;;4.30;;
19621;SDS011;9958;33.196;-97.114;2024-03-08T05:46:39;8.27;;;4.35;;
19621;SDS011;9958;33.196;-97.114;2024-03-08T05:49:08;8.10;;;4.60;;
19621;SDS011;9958;33.196;-97.114;2024-03-08T05:51:37;6.85;;;3.88;;
19621;SDS011;9958;33.196;-97.114;2024-03-08T05:54:07;5.97;;;4.07;;
19621;SDS011;9958;33.196;-97.114;2024-03-08T05:56:37;5.20;;;3.83;;
19621;SDS011;9958;33.196;-97.114;2024-03-08T05:59:06;7.90;;;4.35;;
19621;SDS011;9958;33.196;-97.114;2024-03-08T06:01:36;9.30;;;4.13;;
19621;SDS011;9958;33.196;-97.114;2024-03-08T06:04:06;5.93;;;4.05;;
19621;SDS011;9958;33.196;-97.114;2024-03-08T06:06:35;6.53;;;3.90;;
19621;SDS011;9958;33.196;-97.114;2024-03-08T06:09:03;10.13;;;4.95;;
19621;SDS011;9958;33.196;-97.114;2024-03-08T06:11:36;10.48;;;4.65;;
19621;SDS011;9958;33.196;-97.114;2024-03-08T06:14:05;5.32;;;4.10;;
19621;SDS011;9958;33.196;-97.114;2024-03-08T06:16:33;6.40;;;4.00;;
19621;SDS011;9958;33.196;-97.114;2024-03-08T06:19:03;9.23;;;4.85;;
19621;SDS011;9958;33.196;-97.114;2024-03-08T06:21:32;7.80;;;5.22;;
19621;SDS011;9958;33.196;-97.114;2024-03-08T06:24:00;7.43;;;4.22;;
19621;SDS011;9958;33.196;-97.114;2024-03-08T06:26:29;6.47;;;4.45;;
19621;SDS011;9958;33.196;-97.114;2024-03-08T06:28:57;6.82;;;4.35;;
19621;SDS011;9958;33.196;-97.114;2024-03-08T06:31:26;6.85;;;4.25;;
19621;SDS011;9958;33.196;-97.114;2024-03-08T06:33:56;10.30;;;5.00;;
19621;SDS011;9958;33.196;-97.114;2024-03-08T06:36:24;7.97;;;4.18;;
19621;SDS011;9958;33.196;-97.114;2024-03-08T06:38:53;5.68;;;4.18;;
19621;SDS011;9958;33.196;-97.114;2024-03-08T06:41:23;11.98;;;5.63;;
19621;SDS011;9958;33.196;-97.114;2024-03-08T06:43:52;8.48;;;4.30;;
19621;SDS011;9958;33.196;-97.114;2024-03-08T06:46:23;6.38;;;4.15;;
19621;SDS011;9958;33.196;-97.114;2024-03-08T06:48:51;6.63;;;4.07;;
19621;SDS011;9958;33.196;-97.114;2024-03-08T06:51:21;7.97;;;4.95;;
19621;SDS011;9958;33.196;-97.114;2024-03-08T06:53:50;7.28;;;4.20;;
19621;SDS011;9958;33.196;-97.114;2024-03-08T06:56:18;9.07;;;4.30;;
19621;SDS011;9958;33.196;-97.114;2024-03-08T06:58:48;6.95;;;4.10;;
19621;SDS011;9958;33.196;-97.114;2024-03-08T07:01:16;7.18;;;3.78;;
19621;SDS011;9958;33.196;-97.114;2024-03-08T07:03:45;7.35;;;4.60;;
19621;SDS011;9958;33.196;-97.114;2024-03-08T07:06:13;7.40;;;4.20;;
19621;SDS011;9958;33.196;-97.114;2024-03-08T07:08:46;5.97;;;4.03;;
19621;SDS011;9958;33.196;-97.114;2024-03-08T07:11:14;7.35;;;4.57;;
19621;SDS011;9958;33.196;-97.114;2024-03-08T07:13:44;8.20;;;4.70;;
19621;SDS011;9958;33.196;-97.114;2024-03-08T07:16:12;8.70;;;4.18;;
19621;SDS011;9958;33.196;-97.114;2024-03-08T07:18:41;6.95;;;4.10;;
19621;SDS011;9958;33.196;-97.114;2024-03-08T07:21:10;6.05;;;4.05;;
19621;SDS011;9958;33.196;-97.114;2024-03-08T07:23:38;7.80;;;4.18;;
19621;SDS011;9958;33.196;-97.114;2024-03-08T07:26:45;6.50;;;3.60;;
19621;SDS011;9958;33.196;-97.114;2024-03-08T07:29:15;10.50;;;4.90;;
19621;SDS011;9958;33.196;-97.114;2024-03-08T07:31:43;7.35;;;4.75;;
19621;SDS011;9958;33.196;-97.114;2024-03-08T07:34:16;5.32;;;4.10;;
19621;SDS011;9958;33.196;-97.114;2024-03-08T07:36:46;8.18;;;4.07;;
19621;SDS011;9958;33.196;-97.114;2024-03-08T07:39:16;7.18;;;3.83;;
19621;SDS011;9958;33.196;-97.114;2024-03-08T07:41:46;6.50;;;3.88;;
19621;SDS011;9958;33.196;-97.114;2024-03-08T07:44:15;6.28;;;4.05;;
19621;SDS011;9958;33.196;-97.114;2024-03-08T07:46:44;7.65;;;5.07;;
19621;SDS011;9958;33.196;-97.114;2024-03-08T07:49:12;7.35;;;3.97;;
19621;SDS011;9958;33.196;-97.114;2024-03-08T07:51:40;8.43;;;4.18;;
19621;SDS011;9958;33.196;-97.114;2024-03-08T07:54:09;7.85;;;4.20;;
19621;SDS011;9958;33.196;-97.114;2024-03-08T07:56:37;8.20;;;4.68;;
19621;SDS011;9958;33.196;-97.114;2024-03-08T07:59:08;4.97;;;3.97;;
19621;SDS011;9958;33.196;-97.114;2024-03-08T08:01:37;5.78;;;3.97;;
19621;SDS011;9958;33.196;-97.114;2024-03-08T08:04:05;9.07;;;4.18;;
19621;SDS011;9958;33.196;-97.114;2024-03-08T08:06:38;4.90;;;3.63;;
19621;SDS011;9958;33.196;-97.114;2024-03-08T08:09:07;5.28;;;3.90;;
19621;SDS011;9958;33.196;-97.114;2024-03-08T08:11:40;7.53;;;4.25;;
19621;SDS011;9958;33.196;-97.114;2024-03-08T08:14:10;6.53;;;4.32;;
19621;SDS011;9958;33.196;-97.114;2024-03-08T08:16:39;6.43;;;4.10;;
19621;SDS011;9958;33.196;-97.114;2024-03-08T08:19:10;5.47;;;4.15;;
19621;SDS011;9958;33.196;-97.114;2024-03-08T08:21:39;6.32;;;4.00;;
19621;SDS011;9958;33.196;-97.114;2024-03-08T08:24:07;6.88;;;4.25;;
19621;SDS011;9958;33.196;-97.114;2024-03-08T08:26:36;8.30;;;4.70;;
19621;SDS011;9958;33.196;-97.114;2024-03-08T08:29:04;6.88;;;4.07;;
19621;SDS011;9958;33.196;-97.114;2024-03-08T08:31:34;6.72;;;4.30;;
19621;SDS011;9958;33.196;-97.114;2024-03-08T08:34:03;6.72;;;4.55;;
19621;SDS011;9958;33.196;-97.114;2024-03-08T08:36:32;8.27;;;4.15;;
19621;SDS011;9958;33.196;-97.114;2024-03-08T08:39:02;6.20;;;4.05;;
19621;SDS011;9958;33.196;-97.114;2024-03-08T08:41:36;5.10;;;4.07;;
19621;SDS011;9958;33.196;-97.114;2024-03-08T08:44:07;7.38;;;4.20;;
19621;SDS011;9958;33.196;-97.114;2024-03-08T08:46:39;6.40;;;4.05;;
19621;SDS011;9958;33.196;-97.114;2024-03-08T08:49:07;5.82;;;4.00;;
19621;SDS011;9958;33.196;-97.114;2024-03-08T08:51:40;4.93;;;3.95;;
19621;SDS011;9958;33.196;-97.114;2024-03-08T08:54:08;6.82;;;3.75;;
19621;SDS011;9958;33.196;-97.114;2024-03-08T08:56:37;5.65;;;3.97;;
19621;SDS011;9958;33.196;-97.114;2024-03-08T08:59:05;7.28;;;4.10;;
19621;SDS011;9958;33.196;-97.114;2024-03-08T09:01:33;7.57;;;4.78;;
19621;SDS011;9958;33.196;-97.114;2024-03-08T09:04:04;6.43;;;4.38;;
19621;SDS011;9958;33.196;-97.114;2024-03-08T09:06:33;7.22;;;4.07;;
19621;SDS011;9958;33.196;-97.114;2024-03-08T09:09:02;6.38;;;3.88;;
19621;SDS011;9958;33.196;-97.114;2024-03-08T09:11:30;7.90;;;4.43;;
19621;SDS011;9958;33.196;-97.114;2024-03-08T09:13:59;6.90;;;3.88;;
19621;SDS011;9958;33.196;-97.114;2024-03-08T09:16:27;5.85;;;4.18;;
19621;SDS011;9958;33.196;-97.114;2024-03-08T09:18:56;5.75;;;3.92;;
19621;SDS011;9958;33.196;-97.114;2024-03-08T09:21:26;7.63;;;4.10;;
19621;SDS011;9958;33.196;-97.114;2024-03-08T09:23:55;7.65;;;4.20;;
19621;SDS011;9958;33.196;-97.114;2024-03-08T09:26:24;5.85;;;3.92;;
19621;SDS011;9958;33.196;-97.114;2024-03-08T09:28:52;5.63;;;4.20;;
19621;SDS011;9958;33.196;-97.114;2024-03-08T09:31:21;6.15;;;4.38;;
19621;SDS011;9958;33.196;-97.114;2024-03-08T09:33:50;6.00;;;4.43;;
19621;SDS011;9958;33.196;-97.114;2024-03-08T09:36:18;7.85;;;4.40;;
19621;SDS011;9958;33.196;-97.114;2024-03-08T09:38:48;8.82;;;4.72;;
19621;SDS011;9958;33.196;-97.114;2024-03-08T09:41:17;7.95;;;4.50;;
19621;SDS011;9958;33.196;-97.114;2024-03-08T09:43:45;6.45;;;4.63;;
19621;SDS011;9958;33.196;-97.114;2024-03-08T09:46:14;8.40;;;4.80;;
19621;SDS011;9958;33.196;-97.114;2024-03-08T09:48:44;7.65;;;4.88;;
19621;SDS011;9958;33.196;-97.114;2024-03-08T09:51:13;9.63;;;4.65;;
19621;SDS011;9958;33.196;-97.114;2024-03-08T09:53:41;7.22;;;4.85;;
19621;SDS011;9958;33.196;-97.114;2024-03-08T09:56:12;7.35;;;4.70;;
19621;SDS011;9958;33.196;-97.114;2024-03-08T09:58:40;8.85;;;5.25;;
19621;SDS011;9958;33.196;-97.114;2024-03-08T10:01:46;6.43;;;3.63;;
19621;SDS011;9958;33.196;-97.114;2024-03-08T10:04:15;4.43;;;3.17;;
19621;SDS011;9958;33.196;-97.114;2024-03-08T10:06:45;3.88;;;2.80;;
19621;SDS011;9958;33.196;-97.114;2024-03-08T10:09:14;4.45;;;2.47;;
19621;SDS011;9958;33.196;-97.114;2024-03-08T10:11:44;3.30;;;2.70;;
19621;SDS011;9958;33.196;-97.114;2024-03-08T10:14:12;2.13;;;1.92;;
19621;SDS011;9958;33.196;-97.114;2024-03-08T10:16:42;3.45;;;3.03;;
19621;SDS011;9958;33.196;-97.114;2024-03-08T10:19:12;3.05;;;2.10;;
19621;SDS011;9958;33.196;-97.114;2024-03-08T10:21:47;2.90;;;2.15;;
19621;SDS011;9958;33.196;-97.114;2024-03-08T10:24:18;2.05;;;1.85;;
19621;SDS011;9958;33.196;-97.114;2024-03-08T10:26:51;2.13;;;1.83;;
19621;SDS011;9958;33.196;-97.114;2024-03-08T10:29:20;2.22;;;1.50;;
19621;SDS011;9958;33.196;-97.114;2024-03-08T10:31:49;3.08;;;2.15;;
19621;SDS011;9958;33.196;-97.114;2024-03-08T10:34:17;3.15;;;1.67;;
19621;SDS011;9958;33.196;-97.114;2024-03-08T10:36:47;2.35;;;1.52;;
19621;SDS011;9958;33.196;-97.114;2024-03-08T10:39:20;1.23;;;1.15;;
19621;SDS011;9958;33.196;-97.114;2024-03-08T10:41:53;2.22;;;1.70;;
19621;SDS011;9958;33.196;-97.114;2024-03-08T10:47:15;1.92;;;1.30;;
19621;SDS011;9958;33.196;-97.114;2024-03-08T10:49:54;1.30;;;1.20;;
19621;SDS011;9958;33.196;-97.114;2024-03-08T10:52:29;2.05;;;1.27;;
19621;SDS011;9958;33.196;-97.114;2024-03-08T10:55:00;1.73;;;1.48;;
19621;SDS011;9958;33.196;-97.114;2024-03-08T10:57:31;1.40;;;1.30;;
19621;SDS011;9958;33.196;-97.114;2024-03-08T11:00:01;2.53;;;1.30;;
19621;SDS011;9958;33.196;-97.114;2024-03-08T11:02:33;1.58;;;1.48;;
19621;SDS011;9958;33.196;-97.114;2024-03-08T11:05:03;1.38;;;1.00;;
19621;SDS011;9958;33.196;-97.114;2024-03-08T11:07:33;1.67;;;0.95;;
19621;SDS011;9958;33.196;-97.114;2024-03-08T11:10:02;1.40;;;1.20;;
19621;SDS011;9958;33.196;-97.114;2024-03-08T11:12:37;1.38;;;0.90;;
19621;SDS011;9958;33.196;-97.114;2024-03-08T11:15:09;1.77;;;1.20;;
19621;SDS011;9958;33.196;-97.114;2024-03-08T11:17:45;0.85;;;0.82;;
19621;SDS011;9958;33.196;-97.114;2024-03-08T11:20:15;2.08;;;1.00;;
19621;SDS011;9958;33.196;-97.114;2024-03-08T11:22:49;1.33;;;1.00;;
19621;SDS011;9958;33.196;-97.114;2024-03-08T11:25:31;1.08;;;0.98;;
19621;SDS011;9958;33.196;-97.114;2024-03-08T11:28:13;2.65;;;0.80;;
19621;SDS011;9958;33.196;-97.114;2024-03-08T11:30:46;0.93;;;0.93;;
19621;SDS011;9958;33.196;-97.114;2024-03-08T11:33:30;1.00;;;0.80;;
19621;SDS011;9958;33.196;-97.114;2024-03-08T11:36:02;1.25;;;0.73;;
19621;SDS011;9958;33.196;-97.114;2024-03-08T11:38:39;1.33;;;0.85;;
19621;SDS011;9958;33.196;-97.114;2024-03-08T11:41:09;1.40;;;1.00;;
19621;SDS011;9958;33.196;-97.114;2024-03-08T11:43:41;1.67;;;0.80;;
19621;SDS011;9958;33.196;-97.114;2024-03-08T11:46:10;1.15;;;1.00;;
19621;SDS011;9958;33.196;-97.114;2024-03-08T11:48:39;1.73;;;0.63;;
19621;SDS011;9958;33.196;-97.114;2024-03-08T11:51:08;0.68;;;0.68;;
19621;SDS011;9958;33.196;-97.114;2024-03-08T11:53:37;1.67;;;0.90;;
19621;SDS011;9958;33.196;-97.114;2024-03-08T11:56:07;1.25;;;1.13;;
19621;SDS011;9958;33.196;-97.114;2024-03-08T11:58:35;2.35;;;0.88;;
19621;SDS011;9958;33.196;-97.114;2024-03-08T12:01:06;1.90;;;0.98;;
19621;SDS011;9958;33.196;-97.114;2024-03-08T12:03:35;1.52;;;0.90;;
19621;SDS011;9958;33.196;-97.114;2024-03-08T12:06:04;0.80;;;0.80;;
19621;SDS011;9958;33.196;-97.114;2024-03-08T12:08:35;1.50;;;0.75;;
19621;SDS011;9958;33.196;-97.114;2024-03-08T12:11:03;0.80;;;0.80;;
19621;SDS011;9958;33.196;-97.114;2024-03-08T12:13:33;0.90;;;0.90;;
19621;SDS011;9958;33.196;-97.114;2024-03-08T12:16:02;1.02;;;0.90;;
19621;SDS011;9958;33.196;-97.114;2024-03-08T12:18:34;1.15;;;0.88;;
19621;SDS011;9958;33.196;-97.114;2024-03-08T12:21:04;2.30;;;0.88;;
19621;SDS011;9958;33.196;-97.114;2024-03-08T12:23:34;0.75;;;0.75;;
19621;SDS011;9958;33.196;-97.114;2024-03-08T12:26:10;1.15;;;1.05;;
19621;SDS011;9958;33.196;-97.114;2024-03-08T12:28:40;0.50;;;0.50;;
19621;SDS011;9958;33.196;-97.114;2024-03-08T12:31:11;1.58;;;1.00;;
19621;SDS011;9958;33.196;-97.114;2024-03-08T12:33:49;0.75;;;0.75;;
19621;SDS011;9958;33.196;-97.114;2024-03-08T12:36:19;0.60;;;0.60;;
19621;SDS011;9958;33.196;-97.114;2024-03-08T12:38:48;1.40;;;0.75;;
19621;SDS011;9958;33.196;-97.114;2024-03-08T12:41:16;0.65;;;0.65;;
19621;SDS011;9958;33.196;-97.114;2024-03-08T12:43:46;1.23;;;0.70;;
19621;SDS011;9958;33.196;-97.114;2024-03-08T12:46:15;0.63;;;0.60;;
19621;SDS011;9958;33.196;-97.114;2024-03-08T12:48:45;0.98;;;0.82;;
19621;SDS011;9958;33.196;-97.114;2024-03-08T12:51:16;0.75;;;0.52;;
19621;SDS011;9958;33.196;-97.114;2024-03-08T12:53:46;1.52;;;0.95;;
19621;SDS011;9958;33.196;-97.114;2024-03-08T12:56:21;2.08;;;1.13;;
19621;SDS011;9958;33.196;-97.114;2024-03-08T12:58:58;0.90;;;0.90;;
19621;SDS011;9958;33.196;-97.114;2024-03-08T13:01:26;0.70;;;0.65;;
19621;SDS011;9958;33.196;-97.114;2024-03-08T13:03:55;0.80;;;0.50;;
19621;SDS011;9958;33.196;-97.114;2024-03-08T13:06:25;1.17;;;0.70;;
19621;SDS011;9958;33.196;-97.114;2024-03-08T13:08:54;0.77;;;0.77;;
19621;SDS011;9958;33.196;-97.114;2024-03-08T13:11:23;1.00;;;0.80;;
19621;SDS011;9958;33.196;-97.114;2024-03-08T13:13:52;2.15;;;1.30;;
19621;SDS011;9958;33.196;-97.114;2024-03-08T13:16:21;0.77;;;0.77;;
19621;SDS011;9958;33.196;-97.114;2024-03-08T13:18:49;0.57;;;0.57;;
19621;SDS011;9958;33.196;-97.114;2024-03-08T13:21:18;0.60;;;0.57;;
19621;SDS011;9958;33.196;-97.114;2024-03-08T13:23:51;0.65;;;0.60;;
19621;SDS011;9958;33.196;-97.114;2024-03-08T13:26:20;1.98;;;0.85;;
19621;SDS011;9958;33.196;-97.114;2024-03-08T13:28:51;1.02;;;0.70;;
19621;SDS011;9958;33.196;-97.114;2024-03-08T13:31:20;1.00;;;0.90;;
19621;SDS011;9958;33.196;-97.114;2024-03-08T13:33:48;0.68;;;0.65;;
19621;SDS011;9958;33.196;-97.114;2024-03-08T13:36:23;1.27;;;1.17;;
19621;SDS011;9958;33.196;-97.114;2024-03-08T13:38:56;1.45;;;0.90;;
19621;SDS011;9958;33.196;-97.114;2024-03-08T13:41:25;0.95;;;0.95;;
19621;SDS011;9958;33.196;-97.114;2024-03-08T13:43:54;0.98;;;0.90;;
19621;SDS011;9958;33.196;-97.114;2024-03-08T13:46:23;0.77;;;0.73;;
19621;SDS011;9958;33.196;-97.114;2024-03-08T13:48:52;1.35;;;0.65;;
19621;SDS011;9958;33.196;-97.114;2024-03-08T13:51:21;0.90;;;0.75;;
19621;SDS011;9958;33.196;-97.114;2024-03-08T13:53:50;4.32;;;1.13;;
19621;SDS011;9958;33.196;-97.114;2024-03-08T13:56:21;3.30;;;0.93;;
19621;SDS011;9958;33.196;-97.114;2024-03-08T13:58:49;1.08;;;0.82;;
19621;SDS011;9958;33.196;-97.114;2024-03-08T14:01:18;4.47;;;0.85;;
19621;SDS011;9958;33.196;-97.114;2024-03-08T14:03:46;0.82;;;0.82;;
19621;SDS011;9958;33.196;-97.114;2024-03-08T14:06:15;1.05;;;0.80;;
19621;SDS011;9958;33.196;-97.114;2024-03-08T14:08:43;1.73;;;0.70;;
19621;SDS011;9958;33.196;-97.114;2024-03-08T14:11:12;1.30;;;1.02;;
19621;SDS011;9958;33.196;-97.114;2024-03-08T14:13:42;1.35;;;0.73;;
19621;SDS011;9958;33.196;-97.114;2024-03-08T14:16:11;0.70;;;0.70;;
19621;SDS011;9958;33.196;-97.114;2024-03-08T14:18:40;1.67;;;0.90;;
19621;SDS011;9958;33.196;-97.114;2024-03-08T14:21:09;1.42;;;0.88;;
19621;SDS011;9958;33.196;-97.114;2024-03-08T14:23:37;1.10;;;1.00;;
19621;SDS011;9958;33.196;-97.114;2024-03-08T14:26:09;0.80;;;0.80;;
19621;SDS011;9958;33.196;-97.114;2024-03-08T14:28:37;1.25;;;0.80;;
19621;SDS011;9958;33.196;-97.114;2024-03-08T14:31:07;0.75;;;0.70;;
19621;SDS011;9958;33.196;-97.114;2024-03-08T14:33:37;1.85;;;1.00;;
19621;SDS011;9958;33.196;-97.114;2024-03-08T14:36:08;1.35;;;0.90;;
19621;SDS011;9958;33.196;-97.114;2024-03-08T14:38:39;3.42;;;0.88;;
19621;SDS011;9958;33.196;-97.114;2024-03-08T14:41:07;0.95;;;0.90;;
19621;SDS011;9958;33.196;-97.114;2024-03-08T14:43:35;2.65;;;1.17;;
19621;SDS011;9958;33.196;-97.114;2024-03-08T14:46:04;0.70;;;0.70;;
19621;SDS011;9958;33.196;-97.114;2024-03-08T14:48:34;2.92;;;1.13;;
19621;SDS011;9958;33.196;-97.114;2024-03-08T14:51:02;0.98;;;0.77;;